KHUL/HUL METAR and TAF weather

Enter ICAO airport designator
Station Type Date Time Source
KHUL METAR 2023/09/27 00:53 UTC NOAA

KHUL 270053Z AUTO 00000KT 10SM CLR 07/06 A3038 RMK AO2 SLP293 T00720061


Station Type Date Time Source
KHUL Decoded METAR 2023/09/27 00:53 UTC NOAA

HOULTON INT'L AIRPORT, ME, United States (KHUL) 46-07N 067-48W 150M
Sep 26, 2023 - 08:53 PM EDT / 2023.09.27 0053 UTC
Wind: Calm:0
Visibility: 10 mile(s):0
Sky conditions: clear
Temperature: 45.0 F (7.2 C)
Dew Point: 43.0 F (6.1 C)
Relative Humidity: 92%
Pressure (altimeter): 30.38 in. Hg (1028 hPa)
ob: KHUL 270053Z AUTO 00000KT 10SM CLR 07/06 A3038 RMK AO2 SLP293 T00720061
cycle: 1

Station Type Date Time Source
KHUL TAF 2023/09/26 18:22 UTC NOAA

TAF KHUL 261720Z 2618/2718 35008KT P6SM SKC
FM270400 00000KT 5SM BR FEW002
FM270700 00000KT 1SM BR BKN001
FM271200 35004KT P6SM SKC

Example: see airport list